sensor_id;sensor_type;location;lat;lon;timestamp;P1;P2;P0
69205;PMS7003;56319;48.920;2.332;2023-04-01T00:00:16;0.50;0.00;0.00
69205;PMS7003;56319;48.920;2.332;2023-04-01T00:02:42;0.00;0.00;0.00
69205;PMS7003;56319;48.920;2.332;2023-04-01T00:05:08;0.00;0.00;0.00
69205;PMS7003;56319;48.920;2.332;2023-04-01T00:07:35;0.00;0.00;0.00
69205;PMS7003;56319;48.920;2.332;2023-04-01T00:10:02;0.00;0.00;0.00
69205;PMS7003;56319;48.920;2.332;2023-04-01T00:12:29;0.00;0.00;0.00
69205;PMS7003;56319;48.920;2.332;2023-04-01T00:14:55;0.00;0.00;0.00
69205;PMS7003;56319;48.920;2.332;2023-04-01T00:17:21;0.00;0.00;0.00
69205;PMS7003;56319;48.920;2.332;2023-04-01T00:19:46;1.00;0.00;0.00
69205;PMS7003;56319;48.920;2.332;2023-04-01T00:22:12;0.00;0.00;0.00
69205;PMS7003;56319;48.920;2.332;2023-04-01T00:24:38;0.00;0.00;0.00
69205;PMS7003;56319;48.920;2.332;2023-04-01T00:27:03;0.00;0.00;0.00
69205;PMS7003;56319;48.920;2.332;2023-04-01T00:29:30;0.00;0.00;0.00
69205;PMS7003;56319;48.920;2.332;2023-04-01T00:31:57;0.00;0.00;0.00
69205;PMS7003;56319;48.920;2.332;2023-04-01T00:34:23;0.00;0.00;0.00
69205;PMS7003;56319;48.920;2.332;2023-04-01T00:36:49;0.25;0.00;0.00
69205;PMS7003;56319;48.920;2.332;2023-04-01T00:39:15;0.00;0.00;0.00
69205;PMS7003;56319;48.920;2.332;2023-04-01T00:41:41;0.00;0.00;0.00
69205;PMS7003;56319;48.920;2.332;2023-04-01T00:46:55;0.25;0.00;0.00
69205;PMS7003;56319;48.920;2.332;2023-04-01T00:49:22;0.00;0.00;0.00
69205;PMS7003;56319;48.920;2.332;2023-04-01T00:51:53;0.00;0.00;0.00
69205;PMS7003;56319;48.920;2.332;2023-04-01T00:54:21;2.50;0.00;0.00
69205;PMS7003;56319;48.920;2.332;2023-04-01T00:56:52;0.25;0.00;0.00
69205;PMS7003;56319;48.920;2.332;2023-04-01T00:59:24;0.00;0.00;0.00
69205;PMS7003;56319;48.920;2.332;2023-04-01T01:01:54;0.00;0.00;0.00
69205;PMS7003;56319;48.920;2.332;2023-04-01T01:04:21;0.00;0.00;0.00
69205;PMS7003;56319;48.920;2.332;2023-04-01T01:12:40;0.00;0.00;0.00
69205;PMS7003;56319;48.920;2.332;2023-04-01T01:15:20;0.00;0.00;0.00
69205;PMS7003;56319;48.920;2.332;2023-04-01T01:17:58;0.00;0.00;0.00
69205;PMS7003;56319;48.920;2.332;2023-04-01T01:26:53;0.00;0.00;0.00
69205;PMS7003;56319;48.920;2.332;2023-04-01T01:32:38;1.00;0.00;0.00
69205;PMS7003;56319;48.920;2.332;2023-04-01T01:35:43;0.00;0.00;0.00
69205;PMS7003;56319;48.920;2.332;2023-04-01T01:38:15;0.00;0.00;0.00
69205;PMS7003;56319;48.920;2.332;2023-04-01T01:40:44;0.00;0.00;0.00
69205;PMS7003;56319;48.920;2.332;2023-04-01T01:43:14;0.00;0.00;0.00
69205;PMS7003;56319;48.920;2.332;2023-04-01T01:45:44;0.00;0.00;0.00
69205;PMS7003;56319;48.920;2.332;2023-04-01T01:48:13;0.00;0.00;0.00
69205;PMS7003;56319;48.920;2.332;2023-04-01T01:50:41;0.00;0.00;0.00
69205;PMS7003;56319;48.920;2.332;2023-04-01T01:53:11;0.00;0.00;0.00
69205;PMS7003;56319;48.920;2.332;2023-04-01T01:55:39;1.00;0.00;0.00
69205;PMS7003;56319;48.920;2.332;2023-04-01T01:58:10;0.00;0.00;0.00
69205;PMS7003;56319;48.920;2.332;2023-04-01T02:00:48;1.00;0.00;0.00
69205;PMS7003;56319;48.920;2.332;2023-04-01T02:03:17;1.00;0.00;0.00
69205;PMS7003;56319;48.920;2.332;2023-04-01T02:05:47;0.00;0.00;0.00
69205;PMS7003;56319;48.920;2.332;2023-04-01T02:08:14;0.00;0.00;0.00
69205;PMS7003;56319;48.920;2.332;2023-04-01T02:10:45;0.00;0.00;0.00
69205;PMS7003;56319;48.920;2.332;2023-04-01T02:13:24;0.00;0.00;0.00
69205;PMS7003;56319;48.920;2.332;2023-04-01T02:15:57;0.00;0.00;0.00
69205;PMS7003;56319;48.920;2.332;2023-04-01T02:18:26;0.00;0.00;0.00
69205;PMS7003;56319;48.920;2.332;2023-04-01T02:20:55;0.00;0.00;0.00
69205;PMS7003;56319;48.920;2.332;2023-04-01T02:23:26;1.75;0.00;0.00
69205;PMS7003;56319;48.920;2.332;2023-04-01T02:25:53;0.00;0.00;0.00
69205;PMS7003;56319;48.920;2.332;2023-04-01T02:28:19;0.00;0.00;0.00
69205;PMS7003;56319;48.920;2.332;2023-04-01T02:30:46;0.00;0.00;0.00
69205;PMS7003;56319;48.920;2.332;2023-04-01T02:33:14;0.00;0.00;0.00
69205;PMS7003;56319;48.920;2.332;2023-04-01T02:35:40;0.00;0.00;0.00
69205;PMS7003;56319;48.920;2.332;2023-04-01T02:38:06;0.75;0.00;0.00
69205;PMS7003;56319;48.920;2.332;2023-04-01T02:43:23;0.00;0.00;0.00
69205;PMS7003;56319;48.920;2.332;2023-04-01T02:45:48;1.00;0.00;0.00
69205;PMS7003;56319;48.920;2.332;2023-04-01T02:48:14;0.00;0.00;0.00
69205;PMS7003;56319;48.920;2.332;2023-04-01T02:50:39;0.00;0.00;0.00
69205;PMS7003;56319;48.920;2.332;2023-04-01T02:53:05;0.00;0.00;0.00
69205;PMS7003;56319;48.920;2.332;2023-04-01T02:55:31;0.00;0.00;0.00
69205;PMS7003;56319;48.920;2.332;2023-04-01T02:57:58;0.00;0.00;0.00
69205;PMS7003;56319;48.920;2.332;2023-04-01T03:00:24;0.00;0.00;0.00
69205;PMS7003;56319;48.920;2.332;2023-04-01T03:02:50;0.00;0.00;0.00
69205;PMS7003;56319;48.920;2.332;2023-04-01T03:05:15;1.00;0.00;0.00
69205;PMS7003;56319;48.920;2.332;2023-04-01T03:07:41;0.00;0.00;0.00
69205;PMS7003;56319;48.920;2.332;2023-04-01T03:10:06;0.00;0.00;0.00
69205;PMS7003;56319;48.920;2.332;2023-04-01T03:12:33;0.00;0.00;0.00
69205;PMS7003;56319;48.920;2.332;2023-04-01T03:14:58;0.00;0.00;0.00
69205;PMS7003;56319;48.920;2.332;2023-04-01T03:17:24;0.75;0.00;0.00
69205;PMS7003;56319;48.920;2.332;2023-04-01T03:19:50;0.00;0.00;0.00
69205;PMS7003;56319;48.920;2.332;2023-04-01T03:22:15;0.00;0.00;0.00
69205;PMS7003;56319;48.920;2.332;2023-04-01T03:24:41;0.00;0.00;0.00
69205;PMS7003;56319;48.920;2.332;2023-04-01T03:27:06;0.25;0.00;0.00
69205;PMS7003;56319;48.920;2.332;2023-04-01T03:29:32;0.00;0.00;0.00
69205;PMS7003;56319;48.920;2.332;2023-04-01T03:31:57;0.00;0.00;0.00
69205;PMS7003;56319;48.920;2.332;2023-04-01T03:34:24;0.00;0.00;0.00
69205;PMS7003;56319;48.920;2.332;2023-04-01T03:36:51;0.00;0.00;0.00
69205;PMS7003;56319;48.920;2.332;2023-04-01T03:39:17;0.00;0.00;0.00
69205;PMS7003;56319;48.920;2.332;2023-04-01T03:41:44;0.00;0.00;0.00
69205;PMS7003;56319;48.920;2.332;2023-04-01T03:44:11;0.00;0.00;0.00
69205;PMS7003;56319;48.920;2.332;2023-04-01T03:46:36;0.00;0.00;0.00
69205;PMS7003;56319;48.920;2.332;2023-04-01T03:49:02;0.75;0.00;0.00
69205;PMS7003;56319;48.920;2.332;2023-04-01T03:51:36;1.50;0.00;0.00
69205;PMS7003;56319;48.920;2.332;2023-04-01T03:54:04;1.00;0.00;0.00
69205;PMS7003;56319;48.920;2.332;2023-04-01T03:56:30;0.00;0.00;0.00
69205;PMS7003;56319;48.920;2.332;2023-04-01T03:58:55;0.00;0.00;0.00
69205;PMS7003;56319;48.920;2.332;2023-04-01T04:01:21;0.25;0.00;0.00
69205;PMS7003;56319;48.920;2.332;2023-04-01T04:03:48;0.00;0.00;0.00
69205;PMS7003;56319;48.920;2.332;2023-04-01T04:06:15;0.00;0.00;0.00
69205;PMS7003;56319;48.920;2.332;2023-04-01T04:08:41;0.75;0.00;0.00
69205;PMS7003;56319;48.920;2.332;2023-04-01T04:11:07;0.00;0.00;0.00
69205;PMS7003;56319;48.920;2.332;2023-04-01T04:13:33;0.00;0.00;0.00
69205;PMS7003;56319;48.920;2.332;2023-04-01T04:15:59;0.00;0.00;0.00
69205;PMS7003;56319;48.920;2.332;2023-04-01T04:18:24;0.00;0.00;0.00
69205;PMS7003;56319;48.920;2.332;2023-04-01T04:20:50;0.00;0.00;0.00
69205;PMS7003;56319;48.920;2.332;2023-04-01T04:23:16;0.00;0.00;0.00
69205;PMS7003;56319;48.920;2.332;2023-04-01T04:28:31;0.00;0.00;0.00
69205;PMS7003;56319;48.920;2.332;2023-04-01T04:30:56;0.00;0.00;0.00
69205;PMS7003;56319;48.920;2.332;2023-04-01T04:33:23;0.00;0.00;0.00
69205;PMS7003;56319;48.920;2.332;2023-04-01T04:35:49;0.00;0.00;0.00
69205;PMS7003;56319;48.920;2.332;2023-04-01T04:38:15;0.00;0.00;0.00
69205;PMS7003;56319;48.920;2.332;2023-04-01T04:40:41;0.00;0.00;0.00
69205;PMS7003;56319;48.920;2.332;2023-04-01T04:43:10;2.25;0.00;0.00
69205;PMS7003;56319;48.920;2.332;2023-04-01T04:45:37;0.00;0.00;0.00
69205;PMS7003;56319;48.920;2.332;2023-04-01T04:48:02;0.00;0.00;0.00
69205;PMS7003;56319;48.920;2.332;2023-04-01T04:50:28;0.50;0.00;0.00
69205;PMS7003;56319;48.920;2.332;2023-04-01T04:52:53;0.00;0.00;0.00
69205;PMS7003;56319;48.920;2.332;2023-04-01T04:55:19;0.00;0.00;0.00
69205;PMS7003;56319;48.920;2.332;2023-04-01T04:57:44;0.00;0.00;0.00
69205;PMS7003;56319;48.920;2.332;2023-04-01T05:00:10;0.25;0.00;0.00
69205;PMS7003;56319;48.920;2.332;2023-04-01T05:02:36;0.00;0.00;0.00
69205;PMS7003;56319;48.920;2.332;2023-04-01T05:05:02;0.00;0.00;0.00
69205;PMS7003;56319;48.920;2.332;2023-04-01T05:07:27;0.00;0.00;0.00
69205;PMS7003;56319;48.920;2.332;2023-04-01T05:09:53;0.00;0.00;0.00
69205;PMS7003;56319;48.920;2.332;2023-04-01T05:12:18;0.00;0.00;0.00
69205;PMS7003;56319;48.920;2.332;2023-04-01T05:14:44;0.00;0.00;0.00
69205;PMS7003;56319;48.920;2.332;2023-04-01T05:17:10;0.00;0.00;0.00
69205;PMS7003;56319;48.920;2.332;2023-04-01T05:19:36;0.00;0.00;0.00
69205;PMS7003;56319;48.920;2.332;2023-04-01T05:22:02;0.00;0.00;0.00
69205;PMS7003;56319;48.920;2.332;2023-04-01T05:24:27;0.00;0.00;0.00
69205;PMS7003;56319;48.920;2.332;2023-04-01T05:26:53;0.25;0.00;0.00
69205;PMS7003;56319;48.920;2.332;2023-04-01T05:29:19;0.00;0.00;0.00
69205;PMS7003;56319;48.920;2.332;2023-04-01T05:31:44;0.00;0.00;0.00
69205;PMS7003;56319;48.920;2.332;2023-04-01T05:34:10;0.75;0.00;0.00
69205;PMS7003;56319;48.920;2.332;2023-04-01T05:36:36;0.50;0.00;0.00
69205;PMS7003;56319;48.920;2.332;2023-04-01T05:39:01;0.00;0.00;0.00
69205;PMS7003;56319;48.920;2.332;2023-04-01T05:41:28;0.00;0.00;0.00
69205;PMS7003;56319;48.920;2.332;2023-04-01T05:43:54;0.00;0.00;0.00
69205;PMS7003;56319;48.920;2.332;2023-04-01T05:46:20;0.00;0.00;0.00
69205;PMS7003;56319;48.920;2.332;2023-04-01T05:48:46;0.00;0.00;0.00
69205;PMS7003;56319;48.920;2.332;2023-04-01T05:51:14;0.00;0.00;0.00
69205;PMS7003;56319;48.920;2.332;2023-04-01T05:53:40;0.00;0.00;0.00
69205;PMS7003;56319;48.920;2.332;2023-04-01T05:56:06;0.00;0.00;0.00
69205;PMS7003;56319;48.920;2.332;2023-04-01T05:58:34;0.00;0.00;0.00
69205;PMS7003;56319;48.920;2.332;2023-04-01T06:01:01;0.00;0.00;0.00
69205;PMS7003;56319;48.920;2.332;2023-04-01T06:03:28;0.00;0.00;0.00
69205;PMS7003;56319;48.920;2.332;2023-04-01T06:05:54;1.00;0.00;0.00
69205;PMS7003;56319;48.920;2.332;2023-04-01T06:08:20;0.00;0.00;0.00
69205;PMS7003;56319;48.920;2.332;2023-04-01T06:16:39;0.00;0.00;0.00
69205;PMS7003;56319;48.920;2.332;2023-04-01T06:22:16;0.25;0.00;0.00
69205;PMS7003;56319;48.920;2.332;2023-04-01T06:31:07;0.00;0.00;0.00
69205;PMS7003;56319;48.920;2.332;2023-04-01T06:39:58;0.00;0.00;0.00
69205;PMS7003;56319;48.920;2.332;2023-04-01T06:45:56;0.00;0.00;0.00
69205;PMS7003;56319;48.920;2.332;2023-04-01T06:48:50;0.00;0.00;0.00
69205;PMS7003;56319;48.920;2.332;2023-04-01T06:51:45;0.25;0.00;0.00
69205;PMS7003;56319;48.920;2.332;2023-04-01T06:54:30;0.00;0.00;0.00
69205;PMS7003;56319;48.920;2.332;2023-04-01T06:57:03;1.00;0.00;0.00
69205;PMS7003;56319;48.920;2.332;2023-04-01T06:59:42;2.00;0.00;0.00
69205;PMS7003;56319;48.920;2.332;2023-04-01T07:05:11;0.00;0.00;0.00
69205;PMS7003;56319;48.920;2.332;2023-04-01T07:07:40;0.00;0.00;0.00
69205;PMS7003;56319;48.920;2.332;2023-04-01T07:10:13;1.50;0.00;0.00
69205;PMS7003;56319;48.920;2.332;2023-04-01T07:12:46;0.00;0.00;0.00
69205;PMS7003;56319;48.920;2.332;2023-04-01T07:15:19;0.00;0.00;0.00
69205;PMS7003;56319;48.920;2.332;2023-04-01T07:17:52;0.00;0.00;0.00
69205;PMS7003;56319;48.920;2.332;2023-04-01T07:20:23;0.00;0.00;0.00
69205;PMS7003;56319;48.920;2.332;2023-04-01T07:22:55;0.00;0.00;0.00
69205;PMS7003;56319;48.920;2.332;2023-04-01T07:25:27;0.00;0.00;0.00
69205;PMS7003;56319;48.920;2.332;2023-04-01T07:27:58;0.00;0.00;0.00
69205;PMS7003;56319;48.920;2.332;2023-04-01T07:30:33;0.00;0.00;0.00
69205;PMS7003;56319;48.920;2.332;2023-04-01T07:33:42;0.00;0.00;0.00
69205;PMS7003;56319;48.920;2.332;2023-04-01T07:36:36;0.25;0.00;0.00
69205;PMS7003;56319;48.920;2.332;2023-04-01T07:42:05;0.00;0.00;0.00
69205;PMS7003;56319;48.920;2.332;2023-04-01T07:51:00;0.00;0.00;0.00
69205;PMS7003;56319;48.920;2.332;2023-04-01T07:53:50;0.00;0.00;0.00
69205;PMS7003;56319;48.920;2.332;2023-04-01T07:56:42;0.00;0.00;0.00
69205;PMS7003;56319;48.920;2.332;2023-04-01T08:02:25;0.00;0.00;0.00
69205;PMS7003;56319;48.920;2.332;2023-04-01T08:08:09;0.00;0.00;0.00
69205;PMS7003;56319;48.920;2.332;2023-04-01T08:10:47;0.00;0.00;0.00
69205;PMS7003;56319;48.920;2.332;2023-04-01T08:22:09;0.00;0.00;0.00
69205;PMS7003;56319;48.920;2.332;2023-04-01T08:24:43;0.00;0.00;0.00
69205;PMS7003;56319;48.920;2.332;2023-04-01T08:27:15;0.00;0.00;0.00
69205;PMS7003;56319;48.920;2.332;2023-04-01T08:33:15;0.00;0.00;0.00
69205;PMS7003;56319;48.920;2.332;2023-04-01T08:35:48;0.00;0.00;0.00
69205;PMS7003;56319;48.920;2.332;2023-04-01T08:38:21;0.00;0.00;0.00
69205;PMS7003;56319;48.920;2.332;2023-04-01T08:41:00;0.00;0.00;0.00
69205;PMS7003;56319;48.920;2.332;2023-04-01T08:43:47;0.00;0.00;0.00
69205;PMS7003;56319;48.920;2.332;2023-04-01T08:46:43;0.00;0.00;0.00
69205;PMS7003;56319;48.920;2.332;2023-04-01T08:49:27;0.00;0.00;0.00
69205;PMS7003;56319;48.920;2.332;2023-04-01T08:52:27;1.00;0.00;0.00
69205;PMS7003;56319;48.920;2.332;2023-04-01T08:55:04;0.25;0.00;0.00
69205;PMS7003;56319;48.920;2.332;2023-04-01T09:09:55;0.25;0.00;0.00
69205;PMS7003;56319;48.920;2.332;2023-04-01T09:15:57;0.00;0.00;0.00
69205;PMS7003;56319;48.920;2.332;2023-04-01T09:30:41;0.75;0.00;0.00
69205;PMS7003;56319;48.920;2.332;2023-04-01T09:36:36;0.00;0.00;0.00
69205;PMS7003;56319;48.920;2.332;2023-04-01T09:44:57;0.00;0.00;0.00
69205;PMS7003;56319;48.920;2.332;2023-04-01T09:47:28;0.00;0.00;0.00
69205;PMS7003;56319;48.920;2.332;2023-04-01T09:50:27;0.00;0.00;0.00
69205;PMS7003;56319;48.920;2.332;2023-04-01T10:02:13;0.00;0.00;0.00
69205;PMS7003;56319;48.920;2.332;2023-04-01T10:20:30;0.00;0.00;0.00
69205;PMS7003;56319;48.920;2.332;2023-04-01T10:29:15;0.00;0.00;0.00
69205;PMS7003;56319;48.920;2.332;2023-04-01T10:31:57;1.50;0.00;0.00
69205;PMS7003;56319;48.920;2.332;2023-04-01T10:40:53;0.00;0.00;0.00
69205;PMS7003;56319;48.920;2.332;2023-04-01T10:43:40;0.00;0.00;0.00
69205;PMS7003;56319;48.920;2.332;2023-04-01T10:49:35;0.00;0.00;0.00
69205;PMS7003;56319;48.920;2.332;2023-04-01T10:52:31;0.00;0.00;0.00
69205;PMS7003;56319;48.920;2.332;2023-04-01T10:55:29;0.00;0.00;0.00
69205;PMS7003;56319;48.920;2.332;2023-04-01T11:22:34;0.00;0.00;0.00
69205;PMS7003;56319;48.920;2.332;2023-04-01T11:31:35;0.00;0.00;0.00
69205;PMS7003;56319;48.920;2.332;2023-04-01T11:34:32;0.00;0.00;0.00
69205;PMS7003;56319;48.920;2.332;2023-04-01T11:40:08;0.00;0.00;0.00
69205;PMS7003;56319;48.920;2.332;2023-04-01T11:43:01;0.00;0.00;0.00
69205;PMS7003;56319;48.920;2.332;2023-04-01T11:45:51;0.00;0.00;0.00
69205;PMS7003;56319;48.920;2.332;2023-04-01T11:48:45;0.00;0.00;0.00
69205;PMS7003;56319;48.920;2.332;2023-04-01T11:54:51;0.00;0.00;0.00
69205;PMS7003;56319;48.920;2.332;2023-04-01T11:57:35;0.00;0.00;0.00
69205;PMS7003;56319;48.920;2.332;2023-04-01T12:00:34;0.00;0.00;0.00
69205;PMS7003;56319;48.920;2.332;2023-04-01T12:06:14;0.00;0.00;0.00
69205;PMS7003;56319;48.920;2.332;2023-04-01T12:08:54;0.00;0.00;0.00
69205;PMS7003;56319;48.920;2.332;2023-04-01T12:11:49;0.00;0.00;0.00
69205;PMS7003;56319;48.920;2.332;2023-04-01T12:14:41;0.00;0.00;0.00
69205;PMS7003;56319;48.920;2.332;2023-04-01T12:20:26;0.00;0.00;0.00
69205;PMS7003;56319;48.920;2.332;2023-04-01T12:26:00;0.00;0.00;0.00
69205;PMS7003;56319;48.920;2.332;2023-04-01T12:35:02;1.00;0.00;0.00
69205;PMS7003;56319;48.920;2.332;2023-04-01T12:46:46;0.00;0.00;0.00
69205;PMS7003;56319;48.920;2.332;2023-04-01T12:52:32;0.00;0.00;0.00
69205;PMS7003;56319;48.920;2.332;2023-04-01T12:55:17;0.00;0.00;0.00
69205;PMS7003;56319;48.920;2.332;2023-04-01T13:16:24;0.00;0.00;0.00
69205;PMS7003;56319;48.920;2.332;2023-04-01T13:18:58;0.00;0.00;0.00
69205;PMS7003;56319;48.920;2.332;2023-04-01T13:24:31;0.00;0.00;0.00
69205;PMS7003;56319;48.920;2.332;2023-04-01T13:27:10;0.00;0.00;0.00
69205;PMS7003;56319;48.920;2.332;2023-04-01T13:29:45;0.00;0.00;0.00
69205;PMS7003;56319;48.920;2.332;2023-04-01T13:32:25;1.00;0.00;0.00
69205;PMS7003;56319;48.920;2.332;2023-04-01T13:35:10;0.00;0.00;0.00
69205;PMS7003;56319;48.920;2.332;2023-04-01T13:38:01;0.75;0.00;0.00
69205;PMS7003;56319;48.920;2.332;2023-04-01T13:43:42;0.00;0.00;0.00
69205;PMS7003;56319;48.920;2.332;2023-04-01T13:49:23;0.50;0.00;0.00
69205;PMS7003;56319;48.920;2.332;2023-04-01T14:04:41;0.75;0.00;0.00
69205;PMS7003;56319;48.920;2.332;2023-04-01T14:07:31;0.00;0.00;0.00
69205;PMS7003;56319;48.920;2.332;2023-04-01T14:10:19;0.00;0.00;0.00
69205;PMS7003;56319;48.920;2.332;2023-04-01T14:13:00;1.00;0.00;0.00
69205;PMS7003;56319;48.920;2.332;2023-04-01T14:15:36;0.00;0.00;0.00
69205;PMS7003;56319;48.920;2.332;2023-04-01T14:21:26;0.50;0.00;0.00
69205;PMS7003;56319;48.920;2.332;2023-04-01T14:24:08;0.00;0.00;0.00
69205;PMS7003;56319;48.920;2.332;2023-04-01T14:32:56;0.00;0.00;0.00
69205;PMS7003;56319;48.920;2.332;2023-04-01T14:35:49;0.00;0.00;0.00
69205;PMS7003;56319;48.920;2.332;2023-04-01T14:38:27;0.00;0.00;0.00
69205;PMS7003;56319;48.920;2.332;2023-04-01T14:44:15;0.25;0.00;0.00
69205;PMS7003;56319;48.920;2.332;2023-04-01T14:47:07;0.00;0.00;0.00
69205;PMS7003;56319;48.920;2.332;2023-04-01T14:50:03;0.00;0.00;0.00
69205;PMS7003;56319;48.920;2.332;2023-04-01T14:52:35;0.00;0.00;0.00
69205;PMS7003;56319;48.920;2.332;2023-04-01T14:55:27;0.00;0.00;0.00
69205;PMS7003;56319;48.920;2.332;2023-04-01T15:03:55;0.00;0.00;0.00
69205;PMS7003;56319;48.920;2.332;2023-04-01T15:16:04;0.00;0.00;0.00
69205;PMS7003;56319;48.920;2.332;2023-04-01T15:18:41;1.00;0.00;0.00
69205;PMS7003;56319;48.920;2.332;2023-04-01T15:21:38;0.25;0.00;0.00
69205;PMS7003;56319;48.920;2.332;2023-04-01T15:27:20;0.00;0.00;0.00
69205;PMS7003;56319;48.920;2.332;2023-04-01T15:33:08;0.00;0.00;0.00
69205;PMS7003;56319;48.920;2.332;2023-04-01T15:35:49;0.00;0.00;0.00
69205;PMS7003;56319;48.920;2.332;2023-04-01T15:44:42;0.00;0.00;0.00
69205;PMS7003;56319;48.920;2.332;2023-04-01T15:56:08;0.00;0.00;0.00
69205;PMS7003;56319;48.920;2.332;2023-04-01T15:59:06;0.00;0.00;0.00
69205;PMS7003;56319;48.920;2.332;2023-04-01T16:01:48;0.25;0.00;0.00
69205;PMS7003;56319;48.920;2.332;2023-04-01T16:04:29;0.00;0.00;0.00
69205;PMS7003;56319;48.920;2.332;2023-04-01T16:10:16;0.00;0.00;0.00
69205;PMS7003;56319;48.920;2.332;2023-04-01T16:16:06;0.00;0.00;0.00
69205;PMS7003;56319;48.920;2.332;2023-04-01T16:33:45;1.00;0.00;0.00
69205;PMS7003;56319;48.920;2.332;2023-04-01T16:36:33;0.00;0.00;0.00
69205;PMS7003;56319;48.920;2.332;2023-04-01T16:41:46;0.00;0.00;0.00
69205;PMS7003;56319;48.920;2.332;2023-04-01T16:44:20;2.25;0.00;0.00
69205;PMS7003;56319;48.920;2.332;2023-04-01T16:46:50;0.00;0.00;0.00
69205;PMS7003;56319;48.920;2.332;2023-04-01T16:52:14;0.00;0.00;0.00
69205;PMS7003;56319;48.920;2.332;2023-04-01T16:54:44;0.00;0.00;0.00
69205;PMS7003;56319;48.920;2.332;2023-04-01T16:57:28;0.00;0.00;0.00
69205;PMS7003;56319;48.920;2.332;2023-04-01T17:00:12;0.00;0.00;0.00
69205;PMS7003;56319;48.920;2.332;2023-04-01T17:08:56;0.00;0.00;0.00
69205;PMS7003;56319;48.920;2.332;2023-04-01T17:11:39;0.00;0.00;0.00
69205;PMS7003;56319;48.920;2.332;2023-04-01T17:14:19;0.00;0.00;0.00
69205;PMS7003;56319;48.920;2.332;2023-04-01T17:16:56;0.00;0.00;0.00
69205;PMS7003;56319;48.920;2.332;2023-04-01T17:22:37;0.00;0.00;0.00
69205;PMS7003;56319;48.920;2.332;2023-04-01T17:25:21;0.00;0.00;0.00
69205;PMS7003;56319;48.920;2.332;2023-04-01T17:27:59;0.00;0.00;0.00
69205;PMS7003;56319;48.920;2.332;2023-04-01T17:36:43;0.00;0.00;0.00
69205;PMS7003;56319;48.920;2.332;2023-04-01T17:39:33;2.00;0.00;0.00
69205;PMS7003;56319;48.920;2.332;2023-04-01T17:42:15;0.00;0.00;0.00
69205;PMS7003;56319;48.920;2.332;2023-04-01T17:44:50;0.75;0.00;0.00
69205;PMS7003;56319;48.920;2.332;2023-04-01T17:50:30;0.00;0.00;0.00
69205;PMS7003;56319;48.920;2.332;2023-04-01T17:53:24;0.00;0.00;0.00
69205;PMS7003;56319;48.920;2.332;2023-04-01T17:56:17;0.00;0.00;0.00
69205;PMS7003;56319;48.920;2.332;2023-04-01T17:59:09;0.00;0.00;0.00
69205;PMS7003;56319;48.920;2.332;2023-04-01T18:05:11;0.00;0.00;0.00
69205;PMS7003;56319;48.920;2.332;2023-04-01T18:22:29;0.00;0.00;0.00
69205;PMS7003;56319;48.920;2.332;2023-04-01T18:25:13;0.00;0.00;0.00
69205;PMS7003;56319;48.920;2.332;2023-04-01T18:31:06;0.00;0.00;0.00
69205;PMS7003;56319;48.920;2.332;2023-04-01T18:39:22;0.00;0.00;0.00
69205;PMS7003;56319;48.920;2.332;2023-04-01T18:42:00;0.00;0.00;0.00
69205;PMS7003;56319;48.920;2.332;2023-04-01T18:47:33;0.00;0.00;0.00
69205;PMS7003;56319;48.920;2.332;2023-04-01T18:50:25;0.00;0.00;0.00
69205;PMS7003;56319;48.920;2.332;2023-04-01T18:53:19;0.00;0.00;0.00
69205;PMS7003;56319;48.920;2.332;2023-04-01T18:55:56;0.50;0.00;0.00
69205;PMS7003;56319;48.920;2.332;2023-04-01T18:58:26;0.00;0.00;0.00
69205;PMS7003;56319;48.920;2.332;2023-04-01T19:06:59;1.25;0.25;0.25
69205;PMS7003;56319;48.920;2.332;2023-04-01T19:09:29;0.75;0.00;0.00
69205;PMS7003;56319;48.920;2.332;2023-04-01T19:15:08;0.00;0.00;0.00
69205;PMS7003;56319;48.920;2.332;2023-04-01T19:17:50;1.00;0.00;0.00
69205;PMS7003;56319;48.920;2.332;2023-04-01T19:23:31;0.00;0.00;0.00
69205;PMS7003;56319;48.920;2.332;2023-04-01T19:29:16;0.00;0.00;0.00
69205;PMS7003;56319;48.920;2.332;2023-04-01T19:35:17;0.00;0.00;0.00
69205;PMS7003;56319;48.920;2.332;2023-04-01T19:41:05;1.00;0.00;0.00
69205;PMS7003;56319;48.920;2.332;2023-04-01T19:46:55;0.00;0.00;0.00
69205;PMS7003;56319;48.920;2.332;2023-04-01T19:49:47;0.00;0.00;0.00
69205;PMS7003;56319;48.920;2.332;2023-04-01T19:55:21;0.00;0.00;0.00
69205;PMS7003;56319;48.920;2.332;2023-04-01T19:58:10;0.00;0.00;0.00
69205;PMS7003;56319;48.920;2.332;2023-04-01T20:00:59;0.50;0.50;0.50
69205;PMS7003;56319;48.920;2.332;2023-04-01T20:12:33;0.75;0.75;0.75
69205;PMS7003;56319;48.920;2.332;2023-04-01T20:18:15;0.00;0.00;0.00
69205;PMS7003;56319;48.920;2.332;2023-04-01T20:26:49;1.00;1.00;0.75
69205;PMS7003;56319;48.920;2.332;2023-04-01T20:35:19;1.00;1.00;1.00
69205;PMS7003;56319;48.920;2.332;2023-04-01T20:37:56;1.00;0.75;0.00
69205;PMS7003;56319;48.920;2.332;2023-04-01T20:40:47;1.50;0.50;0.50
69205;PMS7003;56319;48.920;2.332;2023-04-01T20:46:23;1.00;1.00;1.00
69205;PMS7003;56319;48.920;2.332;2023-04-01T20:51:54;2.50;1.00;1.00
69205;PMS7003;56319;48.920;2.332;2023-04-01T20:57:45;2.00;2.00;1.00
69205;PMS7003;56319;48.920;2.332;2023-04-01T21:00:29;2.00;2.00;1.75
69205;PMS7003;56319;48.920;2.332;2023-04-01T21:03:10;2.00;2.00;1.75
69205;PMS7003;56319;48.920;2.332;2023-04-01T21:20:38;2.00;2.00;1.00
69205;PMS7003;56319;48.920;2.332;2023-04-01T21:23:31;2.00;2.00;2.00
69205;PMS7003;56319;48.920;2.332;2023-04-01T21:29:27;1.25;1.00;0.75
69205;PMS7003;56319;48.920;2.332;2023-04-01T21:34:57;3.25;3.00;2.25
69205;PMS7003;56319;48.920;2.332;2023-04-01T21:40:31;1.50;1.50;1.50
69205;PMS7003;56319;48.920;2.332;2023-04-01T21:43:16;2.00;2.00;2.00
69205;PMS7003;56319;48.920;2.332;2023-04-01T21:45:59;1.50;1.50;1.00
69205;PMS7003;56319;48.920;2.332;2023-04-01T21:48:47;2.00;2.00;2.00
69205;PMS7003;56319;48.920;2.332;2023-04-01T22:00:42;1.25;1.25;1.25
69205;PMS7003;56319;48.920;2.332;2023-04-01T22:09:21;1.75;1.75;1.25
69205;PMS7003;56319;48.920;2.332;2023-04-01T22:11:59;1.75;1.75;1.75
69205;PMS7003;56319;48.920;2.332;2023-04-01T22:17:59;2.50;2.50;2.00
69205;PMS7003;56319;48.920;2.332;2023-04-01T22:20:38;2.00;2.00;1.75
69205;PMS7003;56319;48.920;2.332;2023-04-01T22:23:17;1.50;1.50;1.50
69205;PMS7003;56319;48.920;2.332;2023-04-01T22:25:54;2.00;2.00;1.75
69205;PMS7003;56319;48.920;2.332;2023-04-01T22:28:27;2.50;0.25;0.00
69205;PMS7003;56319;48.920;2.332;2023-04-01T22:31:00;2.25;2.25;2.00
69205;PMS7003;56319;48.920;2.332;2023-04-01T22:33:30;2.50;2.00;2.00
69205;PMS7003;56319;48.920;2.332;2023-04-01T22:41:52;3.25;2.25;2.25
69205;PMS7003;56319;48.920;2.332;2023-04-01T22:47:35;2.25;1.00;1.00
69205;PMS7003;56319;48.920;2.332;2023-04-01T22:56:12;0.00;0.00;0.00
69205;PMS7003;56319;48.920;2.332;2023-04-01T22:58:47;1.50;1.50;1.00
69205;PMS7003;56319;48.920;2.332;2023-04-01T23:01:21;2.00;2.00;1.50
69205;PMS7003;56319;48.920;2.332;2023-04-01T23:03:51;1.50;1.50;1.50
69205;PMS7003;56319;48.920;2.332;2023-04-01T23:06:19;3.00;3.00;2.00
69205;PMS7003;56319;48.920;2.332;2023-04-01T23:08:54;2.00;2.00;2.00
69205;PMS7003;56319;48.920;2.332;2023-04-01T23:11:33;1.50;1.50;1.50
69205;PMS7003;56319;48.920;2.332;2023-04-01T23:22:46;3.00;3.00;2.00
69205;PMS7003;56319;48.920;2.332;2023-04-01T23:25:25;3.25;2.00;2.00
69205;PMS7003;56319;48.920;2.332;2023-04-01T23:34:03;2.50;2.50;2.25
69205;PMS7003;56319;48.920;2.332;2023-04-01T23:36:45;3.00;2.00;2.00
69205;PMS7003;56319;48.920;2.332;2023-04-01T23:42:04;3.50;3.50;2.75
69205;PMS7003;56319;48.920;2.332;2023-04-01T23:44:33;3.25;2.50;2.50
69205;PMS7003;56319;48.920;2.332;2023-04-01T23:47:00;1.50;1.50;1.50
69205;PMS7003;56319;48.920;2.332;2023-04-01T23:49:30;1.50;1.50;0.50